sensor_id;sensor_type;location;lat;lon;timestamp;P1;durP1;ratioP1;P2;durP2;ratioP2
81801;SDS011;71199;52.490;5.448;2023-12-14T00:00:42;12.73;;;7.85;;
81801;SDS011;71199;52.490;5.448;2023-12-14T00:03:08;11.50;;;7.00;;
81801;SDS011;71199;52.490;5.448;2023-12-14T00:05:33;11.70;;;6.73;;
81801;SDS011;71199;52.490;5.448;2023-12-14T00:08:00;10.02;;;6.75;;
81801;SDS011;71199;52.490;5.448;2023-12-14T00:10:25;13.82;;;7.82;;
81801;SDS011;71199;52.490;5.448;2023-12-14T00:12:51;11.50;;;7.23;;
81801;SDS011;71199;52.490;5.448;2023-12-14T00:15:17;10.77;;;6.65;;
81801;SDS011;71199;52.490;5.448;2023-12-14T00:17:43;13.18;;;7.38;;
81801;SDS011;71199;52.490;5.448;2023-12-14T00:20:08;12.47;;;6.93;;
81801;SDS011;71199;52.490;5.448;2023-12-14T00:22:34;12.38;;;6.90;;
81801;SDS011;71199;52.490;5.448;2023-12-14T00:24:59;15.43;;;7.93;;
81801;SDS011;71199;52.490;5.448;2023-12-14T00:27:25;13.05;;;7.93;;
81801;SDS011;71199;52.490;5.448;2023-12-14T00:29:50;13.20;;;7.70;;
81801;SDS011;71199;52.490;5.448;2023-12-14T00:32:15;11.73;;;6.77;;
81801;SDS011;71199;52.490;5.448;2023-12-14T00:34:41;11.10;;;7.13;;
81801;SDS011;71199;52.490;5.448;2023-12-14T00:37:06;12.52;;;7.72;;
81801;SDS011;71199;52.490;5.448;2023-12-14T00:39:32;12.85;;;7.97;;
81801;SDS011;71199;52.490;5.448;2023-12-14T00:41:57;14.57;;;7.60;;
81801;SDS011;71199;52.490;5.448;2023-12-14T00:44:22;13.27;;;7.90;;
81801;SDS011;71199;52.490;5.448;2023-12-14T00:46:48;13.85;;;7.78;;
81801;SDS011;71199;52.490;5.448;2023-12-14T00:49:13;15.20;;;7.47;;
81801;SDS011;71199;52.490;5.448;2023-12-14T00:51:38;18.52;;;8.20;;
81801;SDS011;71199;52.490;5.448;2023-12-14T00:54:05;14.70;;;7.85;;
81801;SDS011;71199;52.490;5.448;2023-12-14T00:56:30;16.33;;;9.27;;
81801;SDS011;71199;52.490;5.448;2023-12-14T00:58:56;14.23;;;8.30;;
81801;SDS011;71199;52.490;5.448;2023-12-14T01:01:21;15.50;;;8.95;;
81801;SDS011;71199;52.490;5.448;2023-12-14T01:03:46;16.47;;;9.17;;
81801;SDS011;71199;52.490;5.448;2023-12-14T01:06:12;13.88;;;8.48;;
81801;SDS011;71199;52.490;5.448;2023-12-14T01:08:37;14.88;;;8.63;;
81801;SDS011;71199;52.490;5.448;2023-12-14T01:11:03;14.83;;;8.60;;
81801;SDS011;71199;52.490;5.448;2023-12-14T01:13:28;16.33;;;8.40;;
81801;SDS011;71199;52.490;5.448;2023-12-14T01:15:54;15.23;;;8.23;;
81801;SDS011;71199;52.490;5.448;2023-12-14T01:18:19;11.60;;;6.37;;
81801;SDS011;71199;52.490;5.448;2023-12-14T01:20:44;10.20;;;6.25;;
81801;SDS011;71199;52.490;5.448;2023-12-14T01:23:10;16.42;;;7.70;;
81801;SDS011;71199;52.490;5.448;2023-12-14T01:25:35;13.95;;;7.55;;
81801;SDS011;71199;52.490;5.448;2023-12-14T01:28:01;13.88;;;7.70;;
81801;SDS011;71199;52.490;5.448;2023-12-14T01:30:27;14.30;;;8.13;;
81801;SDS011;71199;52.490;5.448;2023-12-14T01:32:52;13.10;;;6.97;;
81801;SDS011;71199;52.490;5.448;2023-12-14T01:35:17;11.67;;;7.07;;
81801;SDS011;71199;52.490;5.448;2023-12-14T01:37:43;14.37;;;8.13;;
81801;SDS011;71199;52.490;5.448;2023-12-14T01:40:08;14.37;;;8.00;;
81801;SDS011;71199;52.490;5.448;2023-12-14T01:42:34;11.70;;;6.90;;
81801;SDS011;71199;52.490;5.448;2023-12-14T01:44:59;18.47;;;8.47;;
81801;SDS011;71199;52.490;5.448;2023-12-14T01:47:24;15.68;;;8.25;;
81801;SDS011;71199;52.490;5.448;2023-12-14T01:49:50;15.40;;;8.50;;
81801;SDS011;71199;52.490;5.448;2023-12-14T01:52:15;14.07;;;8.30;;
81801;SDS011;71199;52.490;5.448;2023-12-14T01:54:41;15.90;;;8.80;;
81801;SDS011;71199;52.490;5.448;2023-12-14T01:57:06;17.08;;;9.05;;
81801;SDS011;71199;52.490;5.448;2023-12-14T01:59:32;17.50;;;8.18;;
81801;SDS011;71199;52.490;5.448;2023-12-14T02:01:57;17.13;;;8.27;;
81801;SDS011;71199;52.490;5.448;2023-12-14T02:04:24;13.50;;;7.53;;
81801;SDS011;71199;52.490;5.448;2023-12-14T02:06:50;13.98;;;7.93;;
81801;SDS011;71199;52.490;5.448;2023-12-14T02:09:16;13.90;;;7.60;;
81801;SDS011;71199;52.490;5.448;2023-12-14T02:11:41;14.57;;;7.60;;
81801;SDS011;71199;52.490;5.448;2023-12-14T02:14:08;12.30;;;6.50;;
81801;SDS011;71199;52.490;5.448;2023-12-14T02:16:34;11.85;;;7.15;;
81801;SDS011;71199;52.490;5.448;2023-12-14T02:19:00;13.50;;;6.80;;
81801;SDS011;71199;52.490;5.448;2023-12-14T02:21:25;12.02;;;6.35;;
81801;SDS011;71199;52.490;5.448;2023-12-14T02:23:50;10.83;;;6.30;;
81801;SDS011;71199;52.490;5.448;2023-12-14T02:26:16;9.97;;;6.13;;
81801;SDS011;71199;52.490;5.448;2023-12-14T02:28:41;11.02;;;6.90;;
81801;SDS011;71199;52.490;5.448;2023-12-14T02:31:07;9.40;;;4.97;;
81801;SDS011;71199;52.490;5.448;2023-12-14T02:33:32;12.38;;;6.15;;
81801;SDS011;71199;52.490;5.448;2023-12-14T02:35:58;11.38;;;6.85;;
81801;SDS011;71199;52.490;5.448;2023-12-14T02:38:24;12.07;;;6.05;;
81801;SDS011;71199;52.490;5.448;2023-12-14T02:40:49;9.80;;;5.53;;
81801;SDS011;71199;52.490;5.448;2023-12-14T02:43:18;10.02;;;5.28;;
81801;SDS011;71199;52.490;5.448;2023-12-14T02:45:44;11.60;;;5.93;;
81801;SDS011;71199;52.490;5.448;2023-12-14T02:48:09;10.52;;;5.97;;
81801;SDS011;71199;52.490;5.448;2023-12-14T02:50:35;11.10;;;5.32;;
81801;SDS011;71199;52.490;5.448;2023-12-14T02:53:00;11.77;;;6.27;;
81801;SDS011;71199;52.490;5.448;2023-12-14T02:55:26;14.33;;;5.27;;
81801;SDS011;71199;52.490;5.448;2023-12-14T02:57:51;14.17;;;6.10;;
81801;SDS011;71199;52.490;5.448;2023-12-14T03:00:16;9.50;;;5.07;;
81801;SDS011;71199;52.490;5.448;2023-12-14T03:02:42;12.48;;;6.20;;
81801;SDS011;71199;52.490;5.448;2023-12-14T03:05:07;9.70;;;5.20;;
81801;SDS011;71199;52.490;5.448;2023-12-14T03:07:33;14.27;;;5.75;;
81801;SDS011;71199;52.490;5.448;2023-12-14T03:09:58;10.20;;;5.57;;
81801;SDS011;71199;52.490;5.448;2023-12-14T03:12:24;11.70;;;5.43;;
81801;SDS011;71199;52.490;5.448;2023-12-14T03:14:49;9.43;;;5.78;;
81801;SDS011;71199;52.490;5.448;2023-12-14T03:17:14;10.70;;;6.20;;
81801;SDS011;71199;52.490;5.448;2023-12-14T03:19:41;12.70;;;5.85;;
81801;SDS011;71199;52.490;5.448;2023-12-14T03:22:07;11.35;;;5.97;;
81801;SDS011;71199;52.490;5.448;2023-12-14T03:24:33;9.90;;;6.30;;
81801;SDS011;71199;52.490;5.448;2023-12-14T03:26:58;9.50;;;5.78;;
81801;SDS011;71199;52.490;5.448;2023-12-14T03:29:24;9.27;;;5.70;;
81801;SDS011;71199;52.490;5.448;2023-12-14T03:31:49;11.67;;;5.87;;
81801;SDS011;71199;52.490;5.448;2023-12-14T03:34:14;9.50;;;5.20;;
81801;SDS011;71199;52.490;5.448;2023-12-14T03:36:40;11.87;;;5.73;;
81801;SDS011;71199;52.490;5.448;2023-12-14T03:39:05;11.17;;;5.87;;
81801;SDS011;71199;52.490;5.448;2023-12-14T03:41:31;10.45;;;5.43;;
81801;SDS011;71199;52.490;5.448;2023-12-14T03:43:57;9.00;;;5.43;;
81801;SDS011;71199;52.490;5.448;2023-12-14T03:46:22;7.82;;;4.30;;
81801;SDS011;71199;52.490;5.448;2023-12-14T03:48:48;10.60;;;5.18;;
81801;SDS011;71199;52.490;5.448;2023-12-14T03:51:13;11.97;;;5.50;;
81801;SDS011;71199;52.490;5.448;2023-12-14T03:53:38;11.63;;;5.10;;
81801;SDS011;71199;52.490;5.448;2023-12-14T03:56:05;10.82;;;5.55;;
81801;SDS011;71199;52.490;5.448;2023-12-14T03:58:30;10.25;;;4.32;;
81801;SDS011;71199;52.490;5.448;2023-12-14T04:00:56;12.15;;;5.32;;
81801;SDS011;71199;52.490;5.448;2023-12-14T04:03:21;6.90;;;4.67;;
81801;SDS011;71199;52.490;5.448;2023-12-14T04:05:46;8.63;;;4.60;;
81801;SDS011;71199;52.490;5.448;2023-12-14T04:08:12;8.73;;;4.07;;
81801;SDS011;71199;52.490;5.448;2023-12-14T04:10:37;8.50;;;4.60;;
81801;SDS011;71199;52.490;5.448;2023-12-14T04:13:02;7.20;;;4.20;;
81801;SDS011;71199;52.490;5.448;2023-12-14T04:15:28;7.60;;;4.65;;
81801;SDS011;71199;52.490;5.448;2023-12-14T04:17:53;6.15;;;3.75;;
81801;SDS011;71199;52.490;5.448;2023-12-14T04:20:18;6.53;;;4.40;;
81801;SDS011;71199;52.490;5.448;2023-12-14T04:22:44;6.60;;;3.95;;
81801;SDS011;71199;52.490;5.448;2023-12-14T04:25:10;8.18;;;4.18;;
81801;SDS011;71199;52.490;5.448;2023-12-14T04:27:35;6.10;;;3.88;;
81801;SDS011;71199;52.490;5.448;2023-12-14T04:30:01;6.82;;;3.72;;
81801;SDS011;71199;52.490;5.448;2023-12-14T04:32:26;7.53;;;4.10;;
81801;SDS011;71199;52.490;5.448;2023-12-14T04:34:52;7.30;;;4.10;;
81801;SDS011;71199;52.490;5.448;2023-12-14T04:37:17;10.25;;;4.28;;
81801;SDS011;71199;52.490;5.448;2023-12-14T04:39:43;8.27;;;4.07;;
81801;SDS011;71199;52.490;5.448;2023-12-14T04:42:08;8.07;;;4.47;;
81801;SDS011;71199;52.490;5.448;2023-12-14T04:44:33;7.67;;;4.30;;
81801;SDS011;71199;52.490;5.448;2023-12-14T04:46:59;10.15;;;4.60;;
81801;SDS011;71199;52.490;5.448;2023-12-14T04:49:24;6.37;;;4.50;;
81801;SDS011;71199;52.490;5.448;2023-12-14T04:51:50;7.17;;;4.17;;
81801;SDS011;71199;52.490;5.448;2023-12-14T04:54:15;7.47;;;4.32;;
81801;SDS011;71199;52.490;5.448;2023-12-14T04:56:40;6.67;;;3.77;;
81801;SDS011;71199;52.490;5.448;2023-12-14T04:59:06;8.10;;;4.78;;
81801;SDS011;71199;52.490;5.448;2023-12-14T05:01:32;8.30;;;5.22;;
81801;SDS011;71199;52.490;5.448;2023-12-14T05:03:57;6.13;;;3.38;;
81801;SDS011;71199;52.490;5.448;2023-12-14T05:06:23;7.10;;;4.53;;
81801;SDS011;71199;52.490;5.448;2023-12-14T05:08:48;8.05;;;4.35;;
81801;SDS011;71199;52.490;5.448;2023-12-14T05:11:14;9.15;;;4.95;;
81801;SDS011;71199;52.490;5.448;2023-12-14T05:13:42;8.63;;;4.82;;
81801;SDS011;71199;52.490;5.448;2023-12-14T05:16:12;9.52;;;4.80;;
81801;SDS011;71199;52.490;5.448;2023-12-14T05:18:38;8.70;;;5.40;;
81801;SDS011;71199;52.490;5.448;2023-12-14T05:21:04;7.82;;;5.03;;
81801;SDS011;71199;52.490;5.448;2023-12-14T05:23:30;8.60;;;4.63;;
81801;SDS011;71199;52.490;5.448;2023-12-14T05:25:55;8.40;;;5.63;;
81801;SDS011;71199;52.490;5.448;2023-12-14T05:28:21;9.77;;;5.13;;
81801;SDS011;71199;52.490;5.448;2023-12-14T05:30:46;8.63;;;5.23;;
81801;SDS011;71199;52.490;5.448;2023-12-14T05:33:11;9.90;;;6.03;;
81801;SDS011;71199;52.490;5.448;2023-12-14T05:35:37;8.10;;;5.33;;
81801;SDS011;71199;52.490;5.448;2023-12-14T05:38:02;10.80;;;5.30;;
81801;SDS011;71199;52.490;5.448;2023-12-14T05:40:27;13.13;;;6.00;;
81801;SDS011;71199;52.490;5.448;2023-12-14T05:42:53;9.73;;;4.93;;
81801;SDS011;71199;52.490;5.448;2023-12-14T05:45:19;9.25;;;5.70;;
81801;SDS011;71199;52.490;5.448;2023-12-14T05:47:45;8.75;;;4.90;;
81801;SDS011;71199;52.490;5.448;2023-12-14T05:50:11;7.85;;;5.15;;
81801;SDS011;71199;52.490;5.448;2023-12-14T05:52:37;8.57;;;4.75;;
81801;SDS011;71199;52.490;5.448;2023-12-14T05:55:03;8.77;;;5.18;;
81801;SDS011;71199;52.490;5.448;2023-12-14T05:57:29;9.00;;;5.13;;
81801;SDS011;71199;52.490;5.448;2023-12-14T05:59:54;8.93;;;4.97;;
81801;SDS011;71199;52.490;5.448;2023-12-14T06:02:20;8.90;;;5.33;;
81801;SDS011;71199;52.490;5.448;2023-12-14T06:04:45;8.37;;;4.93;;
81801;SDS011;71199;52.490;5.448;2023-12-14T06:07:11;7.57;;;3.90;;
81801;SDS011;71199;52.490;5.448;2023-12-14T06:09:36;7.55;;;4.75;;
81801;SDS011;71199;52.490;5.448;2023-12-14T06:12:02;6.43;;;4.20;;
81801;SDS011;71199;52.490;5.448;2023-12-14T06:14:28;6.30;;;4.68;;
81801;SDS011;71199;52.490;5.448;2023-12-14T06:16:54;9.38;;;5.43;;
81801;SDS011;71199;52.490;5.448;2023-12-14T06:19:20;8.75;;;4.93;;
81801;SDS011;71199;52.490;5.448;2023-12-14T06:21:45;11.95;;;5.22;;
81801;SDS011;71199;52.490;5.448;2023-12-14T06:24:11;10.75;;;5.03;;
81801;SDS011;71199;52.490;5.448;2023-12-14T06:26:42;9.55;;;5.03;;
81801;SDS011;71199;52.490;5.448;2023-12-14T06:29:08;9.48;;;4.50;;
81801;SDS011;71199;52.490;5.448;2023-12-14T06:31:37;9.85;;;5.03;;
81801;SDS011;71199;52.490;5.448;2023-12-14T06:34:03;7.65;;;5.00;;
81801;SDS011;71199;52.490;5.448;2023-12-14T06:36:30;8.10;;;5.03;;
81801;SDS011;71199;52.490;5.448;2023-12-14T06:38:56;9.52;;;4.55;;
81801;SDS011;71199;52.490;5.448;2023-12-14T06:41:22;9.43;;;4.88;;
81801;SDS011;71199;52.490;5.448;2023-12-14T06:43:48;7.82;;;4.70;;
81801;SDS011;71199;52.490;5.448;2023-12-14T06:46:14;9.77;;;4.93;;
81801;SDS011;71199;52.490;5.448;2023-12-14T06:48:39;9.07;;;4.95;;
81801;SDS011;71199;52.490;5.448;2023-12-14T06:51:05;7.45;;;4.72;;
81801;SDS011;71199;52.490;5.448;2023-12-14T06:53:30;8.00;;;4.90;;
81801;SDS011;71199;52.490;5.448;2023-12-14T06:55:56;8.20;;;4.87;;
81801;SDS011;71199;52.490;5.448;2023-12-14T06:58:21;8.37;;;4.30;;
81801;SDS011;71199;52.490;5.448;2023-12-14T07:00:46;7.87;;;5.23;;
81801;SDS011;71199;52.490;5.448;2023-12-14T07:03:12;17.38;;;8.02;;
81801;SDS011;71199;52.490;5.448;2023-12-14T07:05:38;12.75;;;6.20;;
81801;SDS011;71199;52.490;5.448;2023-12-14T07:08:04;9.65;;;4.57;;
81801;SDS011;71199;52.490;5.448;2023-12-14T07:10:29;7.13;;;4.35;;
81801;SDS011;71199;52.490;5.448;2023-12-14T07:12:55;7.55;;;3.92;;
81801;SDS011;71199;52.490;5.448;2023-12-14T07:15:20;6.60;;;3.60;;
81801;SDS011;71199;52.490;5.448;2023-12-14T07:17:45;8.47;;;4.43;;
81801;SDS011;71199;52.490;5.448;2023-12-14T07:20:11;7.90;;;4.43;;
81801;SDS011;71199;52.490;5.448;2023-12-14T07:22:37;6.55;;;4.32;;
81801;SDS011;71199;52.490;5.448;2023-12-14T07:25:03;7.20;;;4.80;;
81801;SDS011;71199;52.490;5.448;2023-12-14T07:27:29;9.43;;;5.20;;
81801;SDS011;71199;52.490;5.448;2023-12-14T07:29:54;7.25;;;4.60;;
81801;SDS011;71199;52.490;5.448;2023-12-14T07:32:20;8.23;;;4.88;;
81801;SDS011;71199;52.490;5.448;2023-12-14T07:34:46;7.82;;;5.22;;
81801;SDS011;71199;52.490;5.448;2023-12-14T07:37:11;8.50;;;5.07;;
81801;SDS011;71199;52.490;5.448;2023-12-14T07:39:37;9.63;;;4.90;;
81801;SDS011;71199;52.490;5.448;2023-12-14T07:42:02;10.97;;;4.77;;
81801;SDS011;71199;52.490;5.448;2023-12-14T07:44:28;9.52;;;5.15;;
81801;SDS011;71199;52.490;5.448;2023-12-14T07:46:55;10.45;;;4.88;;
81801;SDS011;71199;52.490;5.448;2023-12-14T07:49:24;9.98;;;4.85;;
81801;SDS011;71199;52.490;5.448;2023-12-14T07:51:50;6.75;;;4.20;;
81801;SDS011;71199;52.490;5.448;2023-12-14T07:54:15;8.80;;;5.30;;
81801;SDS011;71199;52.490;5.448;2023-12-14T07:56:41;9.27;;;4.70;;
81801;SDS011;71199;52.490;5.448;2023-12-14T07:59:06;8.57;;;4.80;;
81801;SDS011;71199;52.490;5.448;2023-12-14T08:01:33;8.48;;;4.70;;
81801;SDS011;71199;52.490;5.448;2023-12-14T08:03:59;8.70;;;4.82;;
81801;SDS011;71199;52.490;5.448;2023-12-14T08:06:25;6.68;;;4.40;;
81801;SDS011;71199;52.490;5.448;2023-12-14T08:08:50;5.38;;;3.60;;
81801;SDS011;71199;52.490;5.448;2023-12-14T08:11:16;8.50;;;4.10;;
81801;SDS011;71199;52.490;5.448;2023-12-14T08:13:42;6.63;;;4.20;;
81801;SDS011;71199;52.490;5.448;2023-12-14T08:16:07;7.57;;;4.20;;
81801;SDS011;71199;52.490;5.448;2023-12-14T08:18:33;7.43;;;4.55;;
81801;SDS011;71199;52.490;5.448;2023-12-14T08:20:59;7.03;;;4.43;;
81801;SDS011;71199;52.490;5.448;2023-12-14T08:23:24;8.32;;;4.57;;
81801;SDS011;71199;52.490;5.448;2023-12-14T08:25:52;8.10;;;5.18;;
81801;SDS011;71199;52.490;5.448;2023-12-14T08:28:21;8.20;;;4.88;;
81801;SDS011;71199;52.490;5.448;2023-12-14T08:30:47;11.82;;;5.10;;
81801;SDS011;71199;52.490;5.448;2023-12-14T08:33:13;8.80;;;5.13;;
81801;SDS011;71199;52.490;5.448;2023-12-14T08:35:39;9.80;;;5.13;;
81801;SDS011;71199;52.490;5.448;2023-12-14T08:38:04;13.50;;;5.17;;
81801;SDS011;71199;52.490;5.448;2023-12-14T08:40:29;8.10;;;4.10;;
81801;SDS011;71199;52.490;5.448;2023-12-14T08:42:55;10.98;;;4.55;;
81801;SDS011;71199;52.490;5.448;2023-12-14T08:45:20;10.87;;;5.30;;
81801;SDS011;71199;52.490;5.448;2023-12-14T08:47:45;11.33;;;5.60;;
81801;SDS011;71199;52.490;5.448;2023-12-14T08:50:11;10.98;;;4.85;;
81801;SDS011;71199;52.490;5.448;2023-12-14T08:52:37;10.35;;;5.30;;
81801;SDS011;71199;52.490;5.448;2023-12-14T08:55:03;9.57;;;5.90;;
81801;SDS011;71199;52.490;5.448;2023-12-14T08:57:29;12.45;;;5.32;;
81801;SDS011;71199;52.490;5.448;2023-12-14T08:59:54;11.80;;;5.47;;
81801;SDS011;71199;52.490;5.448;2023-12-14T09:02:20;10.77;;;7.00;;
81801;SDS011;71199;52.490;5.448;2023-12-14T09:04:45;12.95;;;5.85;;
81801;SDS011;71199;52.490;5.448;2023-12-14T09:07:10;13.45;;;5.05;;
81801;SDS011;71199;52.490;5.448;2023-12-14T09:09:36;10.98;;;5.25;;
81801;SDS011;71199;52.490;5.448;2023-12-14T09:12:01;11.60;;;5.18;;
81801;SDS011;71199;52.490;5.448;2023-12-14T09:14:27;10.18;;;5.18;;
81801;SDS011;71199;52.490;5.448;2023-12-14T09:16:54;9.60;;;4.93;;
81801;SDS011;71199;52.490;5.448;2023-12-14T09:19:20;8.65;;;5.20;;
81801;SDS011;71199;52.490;5.448;2023-12-14T09:21:45;11.30;;;5.75;;
81801;SDS011;71199;52.490;5.448;2023-12-14T09:24:11;10.63;;;5.38;;
81801;SDS011;71199;52.490;5.448;2023-12-14T09:26:36;8.85;;;5.15;;
81801;SDS011;71199;52.490;5.448;2023-12-14T09:29:01;11.70;;;5.60;;
81801;SDS011;71199;52.490;5.448;2023-12-14T09:31:27;10.02;;;4.78;;
81801;SDS011;71199;52.490;5.448;2023-12-14T09:33:53;10.68;;;4.88;;
81801;SDS011;71199;52.490;5.448;2023-12-14T09:36:18;8.18;;;4.78;;
81801;SDS011;71199;52.490;5.448;2023-12-14T09:38:44;8.50;;;4.60;;
81801;SDS011;71199;52.490;5.448;2023-12-14T09:41:10;11.48;;;5.65;;
81801;SDS011;71199;52.490;5.448;2023-12-14T09:43:36;11.68;;;5.68;;
81801;SDS011;71199;52.490;5.448;2023-12-14T09:46:02;9.82;;;5.20;;
81801;SDS011;71199;52.490;5.448;2023-12-14T09:48:28;12.02;;;5.68;;
81801;SDS011;71199;52.490;5.448;2023-12-14T09:50:54;11.80;;;5.53;;
81801;SDS011;71199;52.490;5.448;2023-12-14T09:53:20;8.38;;;5.65;;
81801;SDS011;71199;52.490;5.448;2023-12-14T09:55:45;12.27;;;6.03;;
81801;SDS011;71199;52.490;5.448;2023-12-14T09:58:11;11.83;;;6.40;;
81801;SDS011;71199;52.490;5.448;2023-12-14T10:00:38;17.33;;;8.85;;
81801;SDS011;71199;52.490;5.448;2023-12-14T10:05:44;8.63;;;4.88;;
81801;SDS011;71199;52.490;5.448;2023-12-14T10:08:10;9.18;;;5.05;;
81801;SDS011;71199;52.490;5.448;2023-12-14T10:10:35;9.23;;;5.80;;
81801;SDS011;71199;52.490;5.448;2023-12-14T10:13:01;9.87;;;5.47;;
81801;SDS011;71199;52.490;5.448;2023-12-14T10:15:26;8.50;;;4.55;;
81801;SDS011;71199;52.490;5.448;2023-12-14T10:17:52;8.45;;;4.60;;
81801;SDS011;71199;52.490;5.448;2023-12-14T10:20:19;6.40;;;4.20;;
81801;SDS011;71199;52.490;5.448;2023-12-14T10:22:49;10.05;;;5.25;;
81801;SDS011;71199;52.490;5.448;2023-12-14T10:25:15;8.18;;;4.47;;
81801;SDS011;71199;52.490;5.448;2023-12-14T10:27:40;8.82;;;5.32;;
81801;SDS011;71199;52.490;5.448;2023-12-14T10:30:09;8.90;;;4.82;;
81801;SDS011;71199;52.490;5.448;2023-12-14T10:32:37;8.82;;;4.45;;
81801;SDS011;71199;52.490;5.448;2023-12-14T10:35:03;10.10;;;4.95;;
81801;SDS011;71199;52.490;5.448;2023-12-14T10:37:29;6.75;;;4.78;;
81801;SDS011;71199;52.490;5.448;2023-12-14T10:39:55;14.18;;;5.85;;
81801;SDS011;71199;52.490;5.448;2023-12-14T10:42:22;11.65;;;4.93;;
81801;SDS011;71199;52.490;5.448;2023-12-14T10:44:52;7.78;;;4.35;;
81801;SDS011;71199;52.490;5.448;2023-12-14T10:47:19;7.82;;;5.00;;
81801;SDS011;71199;52.490;5.448;2023-12-14T10:49:46;6.78;;;4.18;;
81801;SDS011;71199;52.490;5.448;2023-12-14T10:52:14;12.88;;;4.53;;
81801;SDS011;71199;52.490;5.448;2023-12-14T10:54:40;8.00;;;3.92;;
81801;SDS011;71199;52.490;5.448;2023-12-14T10:57:07;11.55;;;5.03;;
81801;SDS011;71199;52.490;5.448;2023-12-14T10:59:33;9.85;;;5.45;;
81801;SDS011;71199;52.490;5.448;2023-12-14T11:01:59;8.00;;;5.00;;
81801;SDS011;71199;52.490;5.448;2023-12-14T11:04:56;10.88;;;4.90;;
81801;SDS011;71199;52.490;5.448;2023-12-14T11:07:45;8.95;;;4.88;;
81801;SDS011;71199;52.490;5.448;2023-12-14T11:13:24;7.38;;;4.22;;
81801;SDS011;71199;52.490;5.448;2023-12-14T11:15:51;6.90;;;4.47;;
81801;SDS011;71199;52.490;5.448;2023-12-14T11:23:44;8.77;;;3.90;;
81801;SDS011;71199;52.490;5.448;2023-12-14T11:28:35;5.88;;;3.70;;
81801;SDS011;71199;52.490;5.448;2023-12-14T11:31:02;7.38;;;3.92;;
81801;SDS011;71199;52.490;5.448;2023-12-14T11:33:31;9.60;;;4.47;;
81801;SDS011;71199;52.490;5.448;2023-12-14T11:36:01;7.53;;;4.30;;
81801;SDS011;71199;52.490;5.448;2023-12-14T11:38:28;8.52;;;4.15;;
81801;SDS011;71199;52.490;5.448;2023-12-14T11:40:54;7.30;;;4.03;;
81801;SDS011;71199;52.490;5.448;2023-12-14T11:43:20;6.85;;;3.75;;
81801;SDS011;71199;52.490;5.448;2023-12-14T11:45:46;7.20;;;4.03;;
81801;SDS011;71199;52.490;5.448;2023-12-14T11:48:12;6.47;;;4.07;;
81801;SDS011;71199;52.490;5.448;2023-12-14T11:50:38;7.45;;;4.32;;
81801;SDS011;71199;52.490;5.448;2023-12-14T11:53:04;7.82;;;4.57;;
81801;SDS011;71199;52.490;5.448;2023-12-14T11:55:34;7.88;;;4.45;;
81801;SDS011;71199;52.490;5.448;2023-12-14T11:58:00;7.55;;;4.50;;
81801;SDS011;71199;52.490;5.448;2023-12-14T12:00:26;6.10;;;4.20;;
81801;SDS011;71199;52.490;5.448;2023-12-14T12:03:12;7.13;;;4.07;;
81801;SDS011;71199;52.490;5.448;2023-12-14T12:05:45;7.05;;;4.65;;
81801;SDS011;71199;52.490;5.448;2023-12-14T12:10:38;5.38;;;3.22;;
81801;SDS011;71199;52.490;5.448;2023-12-14T12:13:06;6.13;;;3.72;;
81801;SDS011;71199;52.490;5.448;2023-12-14T12:15:33;8.07;;;4.57;;
81801;SDS011;71199;52.490;5.448;2023-12-14T12:18:08;5.28;;;3.50;;
81801;SDS011;71199;52.490;5.448;2023-12-14T12:20:35;5.72;;;3.80;;
81801;SDS011;71199;52.490;5.448;2023-12-14T12:23:00;12.23;;;3.80;;
81801;SDS011;71199;52.490;5.448;2023-12-14T12:25:27;9.40;;;4.72;;
81801;SDS011;71199;52.490;5.448;2023-12-14T12:27:56;9.27;;;4.55;;
81801;SDS011;71199;52.490;5.448;2023-12-14T12:30:21;7.03;;;3.65;;
81801;SDS011;71199;52.490;5.448;2023-12-14T12:32:48;8.35;;;4.35;;
81801;SDS011;71199;52.490;5.448;2023-12-14T12:35:14;8.57;;;4.45;;
81801;SDS011;71199;52.490;5.448;2023-12-14T12:37:39;6.25;;;3.40;;
81801;SDS011;71199;52.490;5.448;2023-12-14T12:40:05;7.47;;;4.00;;
81801;SDS011;71199;52.490;5.448;2023-12-14T12:42:31;6.75;;;3.88;;
81801;SDS011;71199;52.490;5.448;2023-12-14T12:44:56;6.13;;;3.40;;
81801;SDS011;71199;52.490;5.448;2023-12-14T12:47:21;7.00;;;3.43;;
81801;SDS011;71199;52.490;5.448;2023-12-14T12:49:47;6.50;;;3.88;;
81801;SDS011;71199;52.490;5.448;2023-12-14T12:52:12;5.30;;;3.50;;
81801;SDS011;71199;52.490;5.448;2023-12-14T12:54:38;6.87;;;4.40;;
81801;SDS011;71199;52.490;5.448;2023-12-14T12:57:04;6.90;;;4.40;;
81801;SDS011;71199;52.490;5.448;2023-12-14T12:59:30;6.97;;;4.18;;
81801;SDS011;71199;52.490;5.448;2023-12-14T13:01:55;7.18;;;4.18;;
81801;SDS011;71199;52.490;5.448;2023-12-14T13:04:21;11.85;;;4.60;;
81801;SDS011;71199;52.490;5.448;2023-12-14T13:06:47;8.70;;;4.38;;
81801;SDS011;71199;52.490;5.448;2023-12-14T13:09:14;6.07;;;4.20;;
81801;SDS011;71199;52.490;5.448;2023-12-14T13:11:39;7.97;;;3.90;;
81801;SDS011;71199;52.490;5.448;2023-12-14T13:14:05;6.80;;;4.47;;
81801;SDS011;71199;52.490;5.448;2023-12-14T13:16:33;7.55;;;4.03;;
81801;SDS011;71199;52.490;5.448;2023-12-14T13:18:59;6.05;;;3.63;;
81801;SDS011;71199;52.490;5.448;2023-12-14T13:21:25;8.98;;;3.22;;
81801;SDS011;71199;52.490;5.448;2023-12-14T13:23:50;7.85;;;3.58;;
81801;SDS011;71199;52.490;5.448;2023-12-14T13:26:16;5.85;;;3.58;;
81801;SDS011;71199;52.490;5.448;2023-12-14T13:28:41;7.00;;;3.70;;
81801;SDS011;71199;52.490;5.448;2023-12-14T13:31:06;8.17;;;4.10;;
81801;SDS011;71199;52.490;5.448;2023-12-14T13:33:32;5.50;;;3.33;;
81801;SDS011;71199;52.490;5.448;2023-12-14T13:35:58;10.90;;;3.50;;
81801;SDS011;71199;52.490;5.448;2023-12-14T13:38:23;8.15;;;3.78;;
81801;SDS011;71199;52.490;5.448;2023-12-14T13:40:49;5.20;;;2.97;;
81801;SDS011;71199;52.490;5.448;2023-12-14T13:43:14;6.03;;;3.10;;
81801;SDS011;71199;52.490;5.448;2023-12-14T13:45:40;6.43;;;3.60;;
81801;SDS011;71199;52.490;5.448;2023-12-14T13:48:07;5.88;;;3.30;;
81801;SDS011;71199;52.490;5.448;2023-12-14T13:50:32;4.90;;;3.60;;
81801;SDS011;71199;52.490;5.448;2023-12-14T13:52:59;7.55;;;3.35;;
81801;SDS011;71199;52.490;5.448;2023-12-14T13:55:24;4.40;;;3.10;;
81801;SDS011;71199;52.490;5.448;2023-12-14T13:57:50;7.32;;;3.30;;
81801;SDS011;71199;52.490;5.448;2023-12-14T14:00:15;7.33;;;3.20;;
81801;SDS011;71199;52.490;5.448;2023-12-14T14:02:41;5.78;;;3.08;;
81801;SDS011;71199;52.490;5.448;2023-12-14T14:05:06;7.38;;;3.00;;
81801;SDS011;71199;52.490;5.448;2023-12-14T14:07:32;6.72;;;3.28;;
81801;SDS011;71199;52.490;5.448;2023-12-14T14:09:57;5.60;;;3.07;;
81801;SDS011;71199;52.490;5.448;2023-12-14T14:12:23;6.90;;;3.67;;
81801;SDS011;71199;52.490;5.448;2023-12-14T14:14:48;7.72;;;3.30;;
81801;SDS011;71199;52.490;5.448;2023-12-14T14:17:14;7.35;;;3.45;;
81801;SDS011;71199;52.490;5.448;2023-12-14T14:19:40;7.40;;;4.00;;
81801;SDS011;71199;52.490;5.448;2023-12-14T14:22:05;6.50;;;3.63;;
81801;SDS011;71199;52.490;5.448;2023-12-14T14:24:30;5.17;;;3.17;;
81801;SDS011;71199;52.490;5.448;2023-12-14T14:26:56;6.10;;;3.25;;
81801;SDS011;71199;52.490;5.448;2023-12-14T14:29:23;5.97;;;3.45;;
81801;SDS011;71199;52.490;5.448;2023-12-14T14:31:49;6.55;;;3.53;;
81801;SDS011;71199;52.490;5.448;2023-12-14T14:34:14;5.70;;;3.37;;
81801;SDS011;71199;52.490;5.448;2023-12-14T14:36:40;6.90;;;3.50;;
81801;SDS011;71199;52.490;5.448;2023-12-14T14:39:05;6.50;;;3.42;;
81801;SDS011;71199;52.490;5.448;2023-12-14T14:41:31;4.90;;;3.22;;
81801;SDS011;71199;52.490;5.448;2023-12-14T14:43:56;9.43;;;3.60;;
81801;SDS011;71199;52.490;5.448;2023-12-14T14:46:22;8.85;;;5.35;;
81801;SDS011;71199;52.490;5.448;2023-12-14T14:48:48;10.20;;;5.45;;
81801;SDS011;71199;52.490;5.448;2023-12-14T14:51:13;9.82;;;5.53;;